sensor_id;sensor_type;location;lat;lon;timestamp;P1;durP1;ratioP1;P2;durP2;ratioP2
60464;SDS011;46314;52.392;9.758;2023-02-28T00:00:27;9.93;;;6.15;;
60464;SDS011;46314;52.392;9.758;2023-02-28T00:02:54;8.23;;;5.38;;
60464;SDS011;46314;52.392;9.758;2023-02-28T00:05:21;9.82;;;6.60;;
60464;SDS011;46314;52.392;9.758;2023-02-28T00:07:50;8.55;;;5.43;;
60464;SDS011;46314;52.392;9.758;2023-02-28T00:10:17;7.75;;;5.50;;
60464;SDS011;46314;52.392;9.758;2023-02-28T00:12:45;9.60;;;7.43;;
60464;SDS011;46314;52.392;9.758;2023-02-28T00:15:12;7.72;;;5.55;;
60464;SDS011;46314;52.392;9.758;2023-02-28T00:17:38;7.22;;;5.32;;
60464;SDS011;46314;52.392;9.758;2023-02-28T00:20:05;15.35;;;6.53;;
60464;SDS011;46314;52.392;9.758;2023-02-28T00:22:33;10.68;;;5.85;;
60464;SDS011;46314;52.392;9.758;2023-02-28T00:25:01;7.35;;;4.78;;
60464;SDS011;46314;52.392;9.758;2023-02-28T00:27:28;11.52;;;5.97;;
60464;SDS011;46314;52.392;9.758;2023-02-28T00:29:54;9.05;;;6.03;;
60464;SDS011;46314;52.392;9.758;2023-02-28T00:32:21;10.90;;;6.18;;
60464;SDS011;46314;52.392;9.758;2023-02-28T00:34:47;8.68;;;5.90;;
60464;SDS011;46314;52.392;9.758;2023-02-28T00:37:14;10.50;;;5.97;;
60464;SDS011;46314;52.392;9.758;2023-02-28T00:39:40;9.43;;;6.45;;
60464;SDS011;46314;52.392;9.758;2023-02-28T00:42:08;9.18;;;5.07;;
60464;SDS011;46314;52.392;9.758;2023-02-28T00:44:34;8.00;;;5.57;;
60464;SDS011;46314;52.392;9.758;2023-02-28T00:47:01;7.95;;;5.57;;
60464;SDS011;46314;52.392;9.758;2023-02-28T00:49:27;8.32;;;5.88;;
60464;SDS011;46314;52.392;9.758;2023-02-28T00:51:54;8.23;;;5.78;;
60464;SDS011;46314;52.392;9.758;2023-02-28T00:54:21;9.82;;;6.72;;
60464;SDS011;46314;52.392;9.758;2023-02-28T00:56:49;11.38;;;6.20;;
60464;SDS011;46314;52.392;9.758;2023-02-28T00:59:17;8.80;;;6.05;;
60464;SDS011;46314;52.392;9.758;2023-02-28T01:01:44;7.72;;;5.18;;
60464;SDS011;46314;52.392;9.758;2023-02-28T01:04:12;8.90;;;6.05;;
60464;SDS011;46314;52.392;9.758;2023-02-28T01:06:39;7.57;;;5.57;;
60464;SDS011;46314;52.392;9.758;2023-02-28T01:09:06;9.77;;;6.15;;
60464;SDS011;46314;52.392;9.758;2023-02-28T01:11:34;9.27;;;5.22;;
60464;SDS011;46314;52.392;9.758;2023-02-28T01:14:00;8.48;;;5.75;;
60464;SDS011;46314;52.392;9.758;2023-02-28T01:16:29;11.27;;;7.38;;
60464;SDS011;46314;52.392;9.758;2023-02-28T01:18:56;9.98;;;5.82;;
60464;SDS011;46314;52.392;9.758;2023-02-28T01:21:23;9.25;;;7.30;;
60464;SDS011;46314;52.392;9.758;2023-02-28T01:23:50;10.23;;;6.28;;
60464;SDS011;46314;52.392;9.758;2023-02-28T01:26:17;10.95;;;7.15;;
60464;SDS011;46314;52.392;9.758;2023-02-28T01:28:45;11.90;;;7.07;;
60464;SDS011;46314;52.392;9.758;2023-02-28T01:31:11;10.20;;;6.63;;
60464;SDS011;46314;52.392;9.758;2023-02-28T01:33:40;9.75;;;6.55;;
60464;SDS011;46314;52.392;9.758;2023-02-28T01:36:09;10.38;;;6.68;;
60464;SDS011;46314;52.392;9.758;2023-02-28T01:38:37;9.15;;;6.47;;
60464;SDS011;46314;52.392;9.758;2023-02-28T01:41:04;10.35;;;6.80;;
60464;SDS011;46314;52.392;9.758;2023-02-28T01:43:31;10.63;;;6.65;;
60464;SDS011;46314;52.392;9.758;2023-02-28T01:46:17;7.82;;;5.72;;
60464;SDS011;46314;52.392;9.758;2023-02-28T01:48:47;9.10;;;6.35;;
60464;SDS011;46314;52.392;9.758;2023-02-28T01:51:18;7.65;;;5.20;;
60464;SDS011;46314;52.392;9.758;2023-02-28T01:53:49;9.63;;;5.95;;
60464;SDS011;46314;52.392;9.758;2023-02-28T01:56:20;7.50;;;5.40;;
60464;SDS011;46314;52.392;9.758;2023-02-28T01:58:49;8.18;;;6.03;;
60464;SDS011;46314;52.392;9.758;2023-02-28T02:01:18;9.52;;;6.68;;
60464;SDS011;46314;52.392;9.758;2023-02-28T02:03:46;9.32;;;6.47;;
60464;SDS011;46314;52.392;9.758;2023-02-28T02:06:13;13.05;;;6.90;;
60464;SDS011;46314;52.392;9.758;2023-02-28T02:08:39;10.82;;;7.30;;
60464;SDS011;46314;52.392;9.758;2023-02-28T02:11:07;12.00;;;8.27;;
60464;SDS011;46314;52.392;9.758;2023-02-28T02:13:46;14.43;;;8.30;;
60464;SDS011;46314;52.392;9.758;2023-02-28T02:16:27;9.30;;;7.78;;
60464;SDS011;46314;52.392;9.758;2023-02-28T02:19:08;12.65;;;7.68;;
60464;SDS011;46314;52.392;9.758;2023-02-28T02:22:02;13.25;;;8.57;;
60464;SDS011;46314;52.392;9.758;2023-02-28T02:24:48;14.43;;;8.65;;
60464;SDS011;46314;52.392;9.758;2023-02-28T02:27:27;13.95;;;9.13;;
60464;SDS011;46314;52.392;9.758;2023-02-28T02:33:09;13.10;;;8.68;;
60464;SDS011;46314;52.392;9.758;2023-02-28T02:35:52;11.07;;;7.95;;
60464;SDS011;46314;52.392;9.758;2023-02-28T02:38:27;11.90;;;8.13;;
60464;SDS011;46314;52.392;9.758;2023-02-28T02:41:02;12.07;;;8.20;;
60464;SDS011;46314;52.392;9.758;2023-02-28T02:43:35;13.68;;;8.35;;
60464;SDS011;46314;52.392;9.758;2023-02-28T02:46:05;18.73;;;8.43;;
60464;SDS011;46314;52.392;9.758;2023-02-28T02:48:37;10.65;;;7.43;;
60464;SDS011;46314;52.392;9.758;2023-02-28T02:51:10;10.20;;;7.05;;
60464;SDS011;46314;52.392;9.758;2023-02-28T02:56:08;9.95;;;6.22;;
60464;SDS011;46314;52.392;9.758;2023-02-28T02:58:36;10.43;;;6.60;;
60464;SDS011;46314;52.392;9.758;2023-02-28T03:01:05;8.48;;;6.47;;
60464;SDS011;46314;52.392;9.758;2023-02-28T03:03:33;12.25;;;7.97;;
60464;SDS011;46314;52.392;9.758;2023-02-28T03:06:00;14.13;;;7.00;;
60464;SDS011;46314;52.392;9.758;2023-02-28T03:08:35;13.10;;;7.85;;
60464;SDS011;46314;52.392;9.758;2023-02-28T03:11:04;11.48;;;8.23;;
60464;SDS011;46314;52.392;9.758;2023-02-28T03:13:36;13.23;;;8.30;;
60464;SDS011;46314;52.392;9.758;2023-02-28T03:16:20;12.00;;;7.93;;
60464;SDS011;46314;52.392;9.758;2023-02-28T03:18:55;11.30;;;7.72;;
60464;SDS011;46314;52.392;9.758;2023-02-28T03:21:31;12.25;;;7.50;;
60464;SDS011;46314;52.392;9.758;2023-02-28T03:24:05;12.30;;;8.63;;
60464;SDS011;46314;52.392;9.758;2023-02-28T03:26:36;13.07;;;7.55;;
60464;SDS011;46314;52.392;9.758;2023-02-28T03:29:08;12.25;;;8.07;;
60464;SDS011;46314;52.392;9.758;2023-02-28T03:31:39;11.73;;;7.80;;
60464;SDS011;46314;52.392;9.758;2023-02-28T03:34:12;10.57;;;7.47;;
60464;SDS011;46314;52.392;9.758;2023-02-28T03:36:44;8.48;;;7.20;;
60464;SDS011;46314;52.392;9.758;2023-02-28T03:39:16;12.80;;;7.78;;
60464;SDS011;46314;52.392;9.758;2023-02-28T03:41:46;12.05;;;7.38;;
60464;SDS011;46314;52.392;9.758;2023-02-28T03:44:16;10.98;;;8.00;;
60464;SDS011;46314;52.392;9.758;2023-02-28T03:46:46;10.30;;;7.75;;
60464;SDS011;46314;52.392;9.758;2023-02-28T03:49:26;10.57;;;7.30;;
60464;SDS011;46314;52.392;9.758;2023-02-28T03:51:56;10.68;;;7.10;;
60464;SDS011;46314;52.392;9.758;2023-02-28T03:54:29;10.02;;;6.90;;
60464;SDS011;46314;52.392;9.758;2023-02-28T03:56:59;10.05;;;7.55;;
60464;SDS011;46314;52.392;9.758;2023-02-28T03:59:32;9.45;;;6.72;;
60464;SDS011;46314;52.392;9.758;2023-02-28T04:02:03;9.65;;;6.45;;
60464;SDS011;46314;52.392;9.758;2023-02-28T04:04:29;11.80;;;7.22;;
60464;SDS011;46314;52.392;9.758;2023-02-28T04:07:00;12.00;;;7.10;;
60464;SDS011;46314;52.392;9.758;2023-02-28T04:09:29;10.35;;;7.55;;
60464;SDS011;46314;52.392;9.758;2023-02-28T04:11:55;9.88;;;7.43;;
60464;SDS011;46314;52.392;9.758;2023-02-28T04:14:22;11.10;;;6.80;;
60464;SDS011;46314;52.392;9.758;2023-02-28T04:16:49;11.45;;;7.70;;
60464;SDS011;46314;52.392;9.758;2023-02-28T04:19:16;10.98;;;6.38;;
60464;SDS011;46314;52.392;9.758;2023-02-28T04:21:43;11.57;;;6.72;;
60464;SDS011;46314;52.392;9.758;2023-02-28T04:24:12;11.20;;;6.95;;
60464;SDS011;46314;52.392;9.758;2023-02-28T04:26:42;11.23;;;7.50;;
60464;SDS011;46314;52.392;9.758;2023-02-28T04:29:10;10.30;;;7.35;;
60464;SDS011;46314;52.392;9.758;2023-02-28T04:31:38;9.70;;;7.07;;
60464;SDS011;46314;52.392;9.758;2023-02-28T04:34:05;10.57;;;6.78;;
60464;SDS011;46314;52.392;9.758;2023-02-28T04:36:32;9.35;;;6.75;;
60464;SDS011;46314;52.392;9.758;2023-02-28T04:38:59;9.30;;;7.43;;
60464;SDS011;46314;52.392;9.758;2023-02-28T04:41:25;9.60;;;7.15;;
60464;SDS011;46314;52.392;9.758;2023-02-28T04:43:58;11.82;;;7.35;;
60464;SDS011;46314;52.392;9.758;2023-02-28T04:46:24;12.95;;;7.18;;
60464;SDS011;46314;52.392;9.758;2023-02-28T04:48:51;10.82;;;6.78;;
60464;SDS011;46314;52.392;9.758;2023-02-28T04:51:18;9.40;;;6.60;;
60464;SDS011;46314;52.392;9.758;2023-02-28T04:53:44;9.40;;;6.90;;
60464;SDS011;46314;52.392;9.758;2023-02-28T04:56:12;10.75;;;6.95;;
60464;SDS011;46314;52.392;9.758;2023-02-28T04:58:40;10.10;;;6.85;;
60464;SDS011;46314;52.392;9.758;2023-02-28T05:01:15;10.70;;;7.07;;
60464;SDS011;46314;52.392;9.758;2023-02-28T05:03:43;9.68;;;7.22;;
60464;SDS011;46314;52.392;9.758;2023-02-28T05:06:10;10.00;;;6.85;;
60464;SDS011;46314;52.392;9.758;2023-02-28T05:08:37;9.38;;;7.82;;
60464;SDS011;46314;52.392;9.758;2023-02-28T05:11:05;9.57;;;7.50;;
60464;SDS011;46314;52.392;9.758;2023-02-28T05:13:32;9.00;;;6.85;;
60464;SDS011;46314;52.392;9.758;2023-02-28T05:15:58;11.95;;;7.20;;
60464;SDS011;46314;52.392;9.758;2023-02-28T05:18:26;10.13;;;8.02;;
60464;SDS011;46314;52.392;9.758;2023-02-28T05:20:53;9.15;;;7.13;;
60464;SDS011;46314;52.392;9.758;2023-02-28T05:23:19;9.30;;;7.10;;
60464;SDS011;46314;52.392;9.758;2023-02-28T05:25:48;12.98;;;6.53;;
60464;SDS011;46314;52.392;9.758;2023-02-28T05:28:14;7.88;;;6.07;;
60464;SDS011;46314;52.392;9.758;2023-02-28T05:30:41;9.85;;;6.95;;
60464;SDS011;46314;52.392;9.758;2023-02-28T05:33:09;10.40;;;7.40;;
60464;SDS011;46314;52.392;9.758;2023-02-28T05:35:38;8.90;;;6.65;;
60464;SDS011;46314;52.392;9.758;2023-02-28T05:38:05;10.55;;;6.72;;
60464;SDS011;46314;52.392;9.758;2023-02-28T05:40:32;11.25;;;6.63;;
60464;SDS011;46314;52.392;9.758;2023-02-28T05:42:58;13.15;;;7.38;;
60464;SDS011;46314;52.392;9.758;2023-02-28T05:45:25;11.60;;;7.65;;
60464;SDS011;46314;52.392;9.758;2023-02-28T05:47:53;11.43;;;7.78;;
60464;SDS011;46314;52.392;9.758;2023-02-28T05:50:19;8.70;;;6.22;;
60464;SDS011;46314;52.392;9.758;2023-02-28T05:52:49;9.77;;;6.35;;
60464;SDS011;46314;52.392;9.758;2023-02-28T05:55:16;10.25;;;6.90;;
60464;SDS011;46314;52.392;9.758;2023-02-28T05:57:43;9.32;;;6.75;;
60464;SDS011;46314;52.392;9.758;2023-02-28T06:00:10;11.25;;;6.50;;
60464;SDS011;46314;52.392;9.758;2023-02-28T06:02:38;10.40;;;6.10;;
60464;SDS011;46314;52.392;9.758;2023-02-28T06:05:05;10.40;;;7.70;;
60464;SDS011;46314;52.392;9.758;2023-02-28T06:07:34;12.10;;;6.00;;
60464;SDS011;46314;52.392;9.758;2023-02-28T06:10:02;7.72;;;5.90;;
60464;SDS011;46314;52.392;9.758;2023-02-28T06:12:28;12.80;;;7.10;;
60464;SDS011;46314;52.392;9.758;2023-02-28T06:14:55;10.30;;;7.22;;
60464;SDS011;46314;52.392;9.758;2023-02-28T06:17:21;10.77;;;8.18;;
60464;SDS011;46314;52.392;9.758;2023-02-28T06:19:47;8.75;;;6.53;;
60464;SDS011;46314;52.392;9.758;2023-02-28T06:22:14;9.77;;;6.75;;
60464;SDS011;46314;52.392;9.758;2023-02-28T06:24:40;10.48;;;6.80;;
60464;SDS011;46314;52.392;9.758;2023-02-28T06:27:08;11.43;;;6.35;;
60464;SDS011;46314;52.392;9.758;2023-02-28T06:29:35;11.52;;;6.95;;
60464;SDS011;46314;52.392;9.758;2023-02-28T06:32:01;11.25;;;5.90;;
60464;SDS011;46314;52.392;9.758;2023-02-28T06:34:28;9.30;;;5.90;;
60464;SDS011;46314;52.392;9.758;2023-02-28T06:36:54;9.02;;;6.57;;
60464;SDS011;46314;52.392;9.758;2023-02-28T06:39:21;10.85;;;6.57;;
60464;SDS011;46314;52.392;9.758;2023-02-28T06:41:47;11.95;;;7.22;;
60464;SDS011;46314;52.392;9.758;2023-02-28T06:44:22;9.23;;;6.65;;
60464;SDS011;46314;52.392;9.758;2023-02-28T06:46:49;13.38;;;7.60;;
60464;SDS011;46314;52.392;9.758;2023-02-28T06:49:16;12.05;;;7.90;;
60464;SDS011;46314;52.392;9.758;2023-02-28T06:51:43;7.70;;;6.30;;
60464;SDS011;46314;52.392;9.758;2023-02-28T06:54:11;11.23;;;7.57;;
60464;SDS011;46314;52.392;9.758;2023-02-28T06:56:38;10.93;;;6.97;;
60464;SDS011;46314;52.392;9.758;2023-02-28T06:59:04;10.13;;;7.25;;
60464;SDS011;46314;52.392;9.758;2023-02-28T07:01:32;10.35;;;7.15;;
60464;SDS011;46314;52.392;9.758;2023-02-28T07:03:59;15.73;;;8.38;;
60464;SDS011;46314;52.392;9.758;2023-02-28T07:06:26;10.90;;;7.15;;
60464;SDS011;46314;52.392;9.758;2023-02-28T07:08:53;13.60;;;7.70;;
60464;SDS011;46314;52.392;9.758;2023-02-28T07:11:20;9.43;;;7.43;;
60464;SDS011;46314;52.392;9.758;2023-02-28T07:13:46;12.60;;;8.13;;
60464;SDS011;46314;52.392;9.758;2023-02-28T07:16:13;11.75;;;6.90;;
60464;SDS011;46314;52.392;9.758;2023-02-28T07:18:41;16.30;;;8.13;;
60464;SDS011;46314;52.392;9.758;2023-02-28T07:21:09;12.05;;;7.68;;
60464;SDS011;46314;52.392;9.758;2023-02-28T07:23:36;12.93;;;7.88;;
60464;SDS011;46314;52.392;9.758;2023-02-28T07:26:04;10.73;;;7.22;;
60464;SDS011;46314;52.392;9.758;2023-02-28T07:28:31;12.27;;;7.72;;
60464;SDS011;46314;52.392;9.758;2023-02-28T07:31:02;13.25;;;7.65;;
60464;SDS011;46314;52.392;9.758;2023-02-28T07:33:29;15.05;;;8.40;;
60464;SDS011;46314;52.392;9.758;2023-02-28T07:36:01;13.63;;;7.85;;
60464;SDS011;46314;52.392;9.758;2023-02-28T07:38:27;10.18;;;6.90;;
60464;SDS011;46314;52.392;9.758;2023-02-28T07:40:54;14.25;;;7.13;;
60464;SDS011;46314;52.392;9.758;2023-02-28T07:43:20;10.45;;;7.32;;
60464;SDS011;46314;52.392;9.758;2023-02-28T07:45:46;12.23;;;7.43;;
60464;SDS011;46314;52.392;9.758;2023-02-28T07:48:13;10.13;;;7.22;;
60464;SDS011;46314;52.392;9.758;2023-02-28T07:50:39;11.07;;;7.22;;
60464;SDS011;46314;52.392;9.758;2023-02-28T07:53:07;12.52;;;7.47;;
60464;SDS011;46314;52.392;9.758;2023-02-28T07:55:33;16.25;;;10.10;;
60464;SDS011;46314;52.392;9.758;2023-02-28T07:58:00;14.18;;;7.72;;
60464;SDS011;46314;52.392;9.758;2023-02-28T08:00:26;13.40;;;8.15;;
60464;SDS011;46314;52.392;9.758;2023-02-28T08:02:53;13.13;;;8.10;;
60464;SDS011;46314;52.392;9.758;2023-02-28T08:05:19;11.88;;;8.73;;
60464;SDS011;46314;52.392;9.758;2023-02-28T08:07:48;14.00;;;7.65;;
60464;SDS011;46314;52.392;9.758;2023-02-28T08:10:16;12.00;;;6.63;;
60464;SDS011;46314;52.392;9.758;2023-02-28T08:12:43;12.38;;;6.35;;
60464;SDS011;46314;52.392;9.758;2023-02-28T08:15:09;11.98;;;6.95;;
60464;SDS011;46314;52.392;9.758;2023-02-28T08:17:36;14.05;;;6.65;;
60464;SDS011;46314;52.392;9.758;2023-02-28T08:20:03;10.13;;;5.85;;
60464;SDS011;46314;52.392;9.758;2023-02-28T08:22:30;9.43;;;6.63;;
60464;SDS011;46314;52.392;9.758;2023-02-28T08:24:57;12.63;;;6.20;;
60464;SDS011;46314;52.392;9.758;2023-02-28T08:27:24;13.38;;;8.05;;
60464;SDS011;46314;52.392;9.758;2023-02-28T08:29:51;7.45;;;6.13;;
60464;SDS011;46314;52.392;9.758;2023-02-28T08:32:17;10.43;;;6.10;;
60464;SDS011;46314;52.392;9.758;2023-02-28T08:34:55;8.68;;;5.63;;
60464;SDS011;46314;52.392;9.758;2023-02-28T08:37:21;8.07;;;5.32;;
60464;SDS011;46314;52.392;9.758;2023-02-28T08:39:48;8.50;;;5.03;;
60464;SDS011;46314;52.392;9.758;2023-02-28T08:42:14;7.55;;;5.28;;
60464;SDS011;46314;52.392;9.758;2023-02-28T08:44:42;8.43;;;6.35;;
60464;SDS011;46314;52.392;9.758;2023-02-28T08:47:08;19.15;;;5.93;;
60464;SDS011;46314;52.392;9.758;2023-02-28T08:49:36;6.90;;;4.75;;
60464;SDS011;46314;52.392;9.758;2023-02-28T08:52:02;7.25;;;4.53;;
60464;SDS011;46314;52.392;9.758;2023-02-28T08:54:29;6.20;;;4.65;;
60464;SDS011;46314;52.392;9.758;2023-02-28T08:56:55;8.55;;;5.00;;
60464;SDS011;46314;52.392;9.758;2023-02-28T08:59:21;7.65;;;4.68;;
60464;SDS011;46314;52.392;9.758;2023-02-28T09:01:49;6.72;;;4.38;;
60464;SDS011;46314;52.392;9.758;2023-02-28T09:04:16;3.88;;;3.40;;
60464;SDS011;46314;52.392;9.758;2023-02-28T09:06:45;6.75;;;3.78;;
60464;SDS011;46314;52.392;9.758;2023-02-28T09:09:12;5.85;;;3.83;;
60464;SDS011;46314;52.392;9.758;2023-02-28T09:11:38;7.85;;;4.43;;
60464;SDS011;46314;52.392;9.758;2023-02-28T09:14:04;4.25;;;2.75;;
60464;SDS011;46314;52.392;9.758;2023-02-28T09:16:31;5.10;;;2.85;;
60464;SDS011;46314;52.392;9.758;2023-02-28T09:19:01;3.55;;;2.47;;
60464;SDS011;46314;52.392;9.758;2023-02-28T09:21:27;3.83;;;2.70;;
60464;SDS011;46314;52.392;9.758;2023-02-28T09:23:55;5.97;;;2.50;;
60464;SDS011;46314;52.392;9.758;2023-02-28T09:26:21;5.10;;;2.63;;
60464;SDS011;46314;52.392;9.758;2023-02-28T09:28:50;5.20;;;2.28;;
60464;SDS011;46314;52.392;9.758;2023-02-28T09:31:18;4.20;;;2.42;;
60464;SDS011;46314;52.392;9.758;2023-02-28T09:33:47;5.38;;;2.22;;
60464;SDS011;46314;52.392;9.758;2023-02-28T09:36:15;4.78;;;2.78;;
60464;SDS011;46314;52.392;9.758;2023-02-28T09:38:42;5.57;;;2.72;;
60464;SDS011;46314;52.392;9.758;2023-02-28T09:41:13;6.47;;;2.97;;
60464;SDS011;46314;52.392;9.758;2023-02-28T09:43:43;4.57;;;2.65;;
60464;SDS011;46314;52.392;9.758;2023-02-28T09:46:18;3.22;;;2.35;;
60464;SDS011;46314;52.392;9.758;2023-02-28T09:48:54;3.60;;;2.50;;
60464;SDS011;46314;52.392;9.758;2023-02-28T09:51:28;4.00;;;2.50;;
60464;SDS011;46314;52.392;9.758;2023-02-28T09:54:00;7.93;;;3.13;;
60464;SDS011;46314;52.392;9.758;2023-02-28T09:56:31;3.92;;;2.15;;
60464;SDS011;46314;52.392;9.758;2023-02-28T09:59:02;6.07;;;2.88;;
60464;SDS011;46314;52.392;9.758;2023-02-28T10:01:37;3.10;;;2.17;;
60464;SDS011;46314;52.392;9.758;2023-02-28T10:04:11;3.75;;;2.53;;
60464;SDS011;46314;52.392;9.758;2023-02-28T10:06:44;4.82;;;2.20;;
60464;SDS011;46314;52.392;9.758;2023-02-28T10:09:15;5.28;;;3.10;;
60464;SDS011;46314;52.392;9.758;2023-02-28T10:11:45;5.78;;;1.90;;
60464;SDS011;46314;52.392;9.758;2023-02-28T10:14:18;3.45;;;2.25;;
60464;SDS011;46314;52.392;9.758;2023-02-28T10:16:47;3.45;;;2.00;;
60464;SDS011;46314;52.392;9.758;2023-02-28T10:19:18;2.15;;;1.73;;
60464;SDS011;46314;52.392;9.758;2023-02-28T10:21:49;4.38;;;2.35;;
60464;SDS011;46314;52.392;9.758;2023-02-28T10:24:23;4.68;;;2.00;;
60464;SDS011;46314;52.392;9.758;2023-02-28T10:27:01;4.88;;;1.88;;
60464;SDS011;46314;52.392;9.758;2023-02-28T10:29:37;4.20;;;2.88;;
60464;SDS011;46314;52.392;9.758;2023-02-28T10:32:08;3.60;;;2.20;;
60464;SDS011;46314;52.392;9.758;2023-02-28T10:34:40;3.13;;;1.80;;
60464;SDS011;46314;52.392;9.758;2023-02-28T10:37:08;2.72;;;1.63;;
60464;SDS011;46314;52.392;9.758;2023-02-28T10:39:36;3.70;;;2.00;;
60464;SDS011;46314;52.392;9.758;2023-02-28T10:42:04;4.28;;;1.98;;
60464;SDS011;46314;52.392;9.758;2023-02-28T10:44:31;2.80;;;1.75;;
60464;SDS011;46314;52.392;9.758;2023-02-28T10:46:58;2.80;;;1.85;;
60464;SDS011;46314;52.392;9.758;2023-02-28T10:49:25;2.20;;;1.60;;
60464;SDS011;46314;52.392;9.758;2023-02-28T10:51:54;3.45;;;2.25;;
60464;SDS011;46314;52.392;9.758;2023-02-28T10:54:24;3.03;;;1.70;;
60464;SDS011;46314;52.392;9.758;2023-02-28T10:57:08;1.88;;;1.60;;
60464;SDS011;46314;52.392;9.758;2023-02-28T10:59:41;2.25;;;1.42;;
60464;SDS011;46314;52.392;9.758;2023-02-28T11:04:57;4.65;;;2.35;;
60464;SDS011;46314;52.392;9.758;2023-02-28T11:07:23;3.00;;;1.60;;
60464;SDS011;46314;52.392;9.758;2023-02-28T11:09:57;2.17;;;1.20;;
60464;SDS011;46314;52.392;9.758;2023-02-28T11:12:25;2.20;;;1.20;;
60464;SDS011;46314;52.392;9.758;2023-02-28T11:14:56;1.20;;;0.82;;
60464;SDS011;46314;52.392;9.758;2023-02-28T11:17:26;2.70;;;1.27;;
60464;SDS011;46314;52.392;9.758;2023-02-28T11:19:54;3.47;;;1.05;;
60464;SDS011;46314;52.392;9.758;2023-02-28T11:22:23;2.78;;;1.20;;
60464;SDS011;46314;52.392;9.758;2023-02-28T11:24:52;2.70;;;1.50;;
60464;SDS011;46314;52.392;9.758;2023-02-28T11:27:45;2.05;;;1.15;;
60464;SDS011;46314;52.392;9.758;2023-02-28T11:33:23;2.05;;;1.17;;
60464;SDS011;46314;52.392;9.758;2023-02-28T11:35:53;1.10;;;0.90;;
60464;SDS011;46314;52.392;9.758;2023-02-28T11:38:24;3.03;;;1.40;;
60464;SDS011;46314;52.392;9.758;2023-02-28T11:40:56;4.15;;;1.48;;
60464;SDS011;46314;52.392;9.758;2023-02-28T11:43:39;2.67;;;1.20;;
60464;SDS011;46314;52.392;9.758;2023-02-28T11:48:52;2.10;;;1.27;;
60464;SDS011;46314;52.392;9.758;2023-02-28T11:51:28;2.17;;;1.27;;
60464;SDS011;46314;52.392;9.758;2023-02-28T11:54:04;4.55;;;1.50;;
60464;SDS011;46314;52.392;9.758;2023-02-28T11:56:51;3.20;;;1.40;;
60464;SDS011;46314;52.392;9.758;2023-02-28T11:59:32;5.70;;;2.20;;
60464;SDS011;46314;52.392;9.758;2023-02-28T12:02:16;4.18;;;1.42;;
60464;SDS011;46314;52.392;9.758;2023-02-28T12:04:52;1.67;;;1.15;;
60464;SDS011;46314;52.392;9.758;2023-02-28T12:07:30;4.15;;;2.13;;
60464;SDS011;46314;52.392;9.758;2023-02-28T12:10:04;3.20;;;1.70;;
60464;SDS011;46314;52.392;9.758;2023-02-28T12:12:41;5.05;;;1.50;;
60464;SDS011;46314;52.392;9.758;2023-02-28T12:15:19;2.25;;;1.40;;
60464;SDS011;46314;52.392;9.758;2023-02-28T12:17:56;4.03;;;1.90;;
60464;SDS011;46314;52.392;9.758;2023-02-28T12:20:35;2.85;;;1.83;;
60464;SDS011;46314;52.392;9.758;2023-02-28T12:23:11;5.65;;;1.95;;
60464;SDS011;46314;52.392;9.758;2023-02-28T12:26:00;2.33;;;1.60;;
60464;SDS011;46314;52.392;9.758;2023-02-28T12:28:33;2.90;;;2.30;;
60464;SDS011;46314;52.392;9.758;2023-02-28T12:31:03;2.17;;;1.33;;
60464;SDS011;46314;52.392;9.758;2023-02-28T12:33:36;2.03;;;1.45;;
60464;SDS011;46314;52.392;9.758;2023-02-28T12:36:09;6.00;;;2.03;;
60464;SDS011;46314;52.392;9.758;2023-02-28T12:38:38;2.53;;;1.80;;
60464;SDS011;46314;52.392;9.758;2023-02-28T12:41:09;4.60;;;1.73;;
60464;SDS011;46314;52.392;9.758;2023-02-28T12:43:40;2.45;;;1.75;;
60464;SDS011;46314;52.392;9.758;2023-02-28T12:46:12;3.65;;;1.77;;
60464;SDS011;46314;52.392;9.758;2023-02-28T12:48:44;2.30;;;1.45;;
60464;SDS011;46314;52.392;9.758;2023-02-28T12:51:14;2.67;;;2.08;;
60464;SDS011;46314;52.392;9.758;2023-02-28T12:53:48;4.03;;;2.40;;
60464;SDS011;46314;52.392;9.758;2023-02-28T12:56:26;3.80;;;2.83;;
60464;SDS011;46314;52.392;9.758;2023-02-28T12:58:59;2.65;;;2.15;;
60464;SDS011;46314;52.392;9.758;2023-02-28T13:04:33;3.80;;;2.28;;
60464;SDS011;46314;52.392;9.758;2023-02-28T13:07:31;4.53;;;2.60;;
60464;SDS011;46314;52.392;9.758;2023-02-28T13:10:09;5.53;;;2.28;;
60464;SDS011;46314;52.392;9.758;2023-02-28T13:12:36;4.28;;;2.78;;
60464;SDS011;46314;52.392;9.758;2023-02-28T13:15:16;5.82;;;3.17;;
60464;SDS011;46314;52.392;9.758;2023-02-28T13:17:46;3.55;;;2.42;;
60464;SDS011;46314;52.392;9.758;2023-02-28T13:20:18;3.95;;;2.42;;
60464;SDS011;46314;52.392;9.758;2023-02-28T13:22:47;3.67;;;2.67;;
60464;SDS011;46314;52.392;9.758;2023-02-28T13:31:25;4.88;;;2.45;;
60464;SDS011;46314;52.392;9.758;2023-02-28T13:34:12;3.28;;;2.75;;
60464;SDS011;46314;52.392;9.758;2023-02-28T13:36:42;3.08;;;2.60;;
60464;SDS011;46314;52.392;9.758;2023-02-28T13:42:31;4.72;;;2.55;;
60464;SDS011;46314;52.392;9.758;2023-02-28T13:47:53;4.72;;;2.80;;
60464;SDS011;46314;52.392;9.758;2023-02-28T13:50:32;3.38;;;2.13;;
60464;SDS011;46314;52.392;9.758;2023-02-28T13:53:14;3.42;;;2.38;;
60464;SDS011;46314;52.392;9.758;2023-02-28T13:56:19;3.42;;;2.53;;
60464;SDS011;46314;52.392;9.758;2023-02-28T13:58:54;5.50;;;2.97;;
60464;SDS011;46314;52.392;9.758;2023-02-28T14:01:29;4.03;;;2.53;;
60464;SDS011;46314;52.392;9.758;2023-02-28T14:04:09;4.78;;;2.95;;
60464;SDS011;46314;52.392;9.758;2023-02-28T14:06:48;4.60;;;2.85;;
60464;SDS011;46314;52.392;9.758;2023-02-28T14:09:21;4.15;;;3.05;;
60464;SDS011;46314;52.392;9.758;2023-02-28T14:11:50;3.45;;;2.40;;
60464;SDS011;46314;52.392;9.758;2023-02-28T14:17:19;3.90;;;2.50;;
60464;SDS011;46314;52.392;9.758;2023-02-28T14:19:46;3.65;;;2.22;;
60464;SDS011;46314;52.392;9.758;2023-02-28T14:22:16;3.67;;;2.63;;
60464;SDS011;46314;52.392;9.758;2023-02-28T14:25:08;3.10;;;2.50;;
60464;SDS011;46314;52.392;9.758;2023-02-28T14:27:45;3.45;;;2.17;;
60464;SDS011;46314;52.392;9.758;2023-02-28T14:30:24;3.63;;;2.33;;
60464;SDS011;46314;52.392;9.758;2023-02-28T14:33:05;4.60;;;2.33;;
60464;SDS011;46314;52.392;9.758;2023-02-28T14:35:48;5.00;;;2.92;;
60464;SDS011;46314;52.392;9.758;2023-02-28T14:38:25;4.63;;;2.60;;
60464;SDS011;46314;52.392;9.758;2023-02-28T14:40:56;5.03;;;2.35;;
60464;SDS011;46314;52.392;9.758;2023-02-28T14:43:25;3.65;;;2.25;;
60464;SDS011;46314;52.392;9.758;2023-02-28T14:45:54;5.20;;;2.85;;
60464;SDS011;46314;52.392;9.758;2023-02-28T14:48:22;6.35;;;3.00;;
60464;SDS011;46314;52.392;9.758;2023-02-28T14:50:52;3.25;;;2.47;;
60464;SDS011;46314;52.392;9.758;2023-02-28T14:53:20;3.63;;;2.00;;
60464;SDS011;46314;52.392;9.758;2023-02-28T14:55:48;4.80;;;2.53;;
60464;SDS011;46314;52.392;9.758;2023-02-28T14:58:22;5.20;;;2.78;;
60464;SDS011;46314;52.392;9.758;2023-02-28T15:00:52;14.38;;;8.02;;
60464;SDS011;46314;52.392;9.758;2023-02-28T15:03:19;5.38;;;3.65;;
60464;SDS011;46314;52.392;9.758;2023-02-28T15:05:51;5.38;;;2.45;;
60464;SDS011;46314;52.392;9.758;2023-02-28T15:08:18;4.60;;;2.53;;
60464;SDS011;46314;52.392;9.758;2023-02-28T15:10:49;4.35;;;2.70;;
60464;SDS011;46314;52.392;9.758;2023-02-28T15:13:18;4.65;;;2.40;;
60464;SDS011;46314;52.392;9.758;2023-02-28T15:15:47;4.30;;;2.97;;
60464;SDS011;46314;52.392;9.758;2023-02-28T15:18:32;6.78;;;2.90;;
60464;SDS011;46314;52.392;9.758;2023-02-28T15:21:05;5.03;;;2.78;;
60464;SDS011;46314;52.392;9.758;2023-02-28T15:23:34;4.82;;;2.92;;
60464;SDS011;46314;52.392;9.758;2023-02-28T15:26:02;4.28;;;2.80;;
60464;SDS011;46314;52.392;9.758;2023-02-28T15:28:29;3.78;;;2.38;;
60464;SDS011;46314;52.392;9.758;2023-02-28T15:30:58;4.90;;;2.63;;
60464;SDS011;46314;52.392;9.758;2023-02-28T15:33:26;3.70;;;2.70;;